sensor_id;sensor_type;location;lat;lon;timestamp;P1;durP1;ratioP1;P2;durP2;ratioP2
39018;SDS011;24786;51.984;5.872;2022-12-20T00:01:12;3.67;;;3.22;;
39018;SDS011;24786;51.984;5.872;2022-12-20T00:03:39;3.40;;;2.97;;
39018;SDS011;24786;51.984;5.872;2022-12-20T00:06:05;5.57;;;2.88;;
39018;SDS011;24786;51.984;5.872;2022-12-20T00:08:31;4.53;;;3.47;;
39018;SDS011;24786;51.984;5.872;2022-12-20T00:10:59;4.07;;;3.17;;
39018;SDS011;24786;51.984;5.872;2022-12-20T00:13:27;3.40;;;2.90;;
39018;SDS011;24786;51.984;5.872;2022-12-20T00:16:12;4.97;;;2.88;;
39018;SDS011;24786;51.984;5.872;2022-12-20T00:18:40;5.63;;;3.35;;
39018;SDS011;24786;51.984;5.872;2022-12-20T00:21:08;4.78;;;3.03;;
39018;SDS011;24786;51.984;5.872;2022-12-20T00:23:35;2.90;;;2.60;;
39018;SDS011;24786;51.984;5.872;2022-12-20T00:26:05;3.60;;;3.03;;
39018;SDS011;24786;51.984;5.872;2022-12-20T00:28:33;4.00;;;3.30;;
39018;SDS011;24786;51.984;5.872;2022-12-20T00:31:00;3.33;;;3.03;;
39018;SDS011;24786;51.984;5.872;2022-12-20T00:33:27;3.63;;;3.00;;
39018;SDS011;24786;51.984;5.872;2022-12-20T00:35:54;3.55;;;2.83;;
39018;SDS011;24786;51.984;5.872;2022-12-20T00:38:20;4.63;;;3.10;;
39018;SDS011;24786;51.984;5.872;2022-12-20T00:45:55;2.50;;;2.30;;
39018;SDS011;24786;51.984;5.872;2022-12-20T00:48:21;3.28;;;2.28;;
39018;SDS011;24786;51.984;5.872;2022-12-20T00:50:47;3.88;;;3.00;;
39018;SDS011;24786;51.984;5.872;2022-12-20T00:53:13;4.90;;;2.75;;
39018;SDS011;24786;51.984;5.872;2022-12-20T00:55:42;11.82;;;2.70;;
39018;SDS011;24786;51.984;5.872;2022-12-20T00:58:09;3.72;;;2.50;;
39018;SDS011;24786;51.984;5.872;2022-12-20T01:00:36;2.67;;;2.30;;
39018;SDS011;24786;51.984;5.872;2022-12-20T01:03:02;3.38;;;2.60;;
39018;SDS011;24786;51.984;5.872;2022-12-20T01:05:29;5.63;;;2.33;;
39018;SDS011;24786;51.984;5.872;2022-12-20T01:07:55;4.22;;;2.47;;
39018;SDS011;24786;51.984;5.872;2022-12-20T01:10:20;4.10;;;2.40;;
39018;SDS011;24786;51.984;5.872;2022-12-20T01:12:46;4.68;;;2.60;;
39018;SDS011;24786;51.984;5.872;2022-12-20T01:15:12;5.15;;;2.72;;
39018;SDS011;24786;51.984;5.872;2022-12-20T01:17:37;2.70;;;2.40;;
39018;SDS011;24786;51.984;5.872;2022-12-20T01:20:03;3.97;;;3.38;;
39018;SDS011;24786;51.984;5.872;2022-12-20T01:22:30;5.70;;;2.85;;
39018;SDS011;24786;51.984;5.872;2022-12-20T01:24:55;3.30;;;2.60;;
39018;SDS011;24786;51.984;5.872;2022-12-20T01:27:21;3.10;;;2.53;;
39018;SDS011;24786;51.984;5.872;2022-12-20T01:29:46;3.95;;;2.70;;
39018;SDS011;24786;51.984;5.872;2022-12-20T01:32:12;3.70;;;2.35;;
39018;SDS011;24786;51.984;5.872;2022-12-20T01:34:38;3.55;;;2.60;;
39018;SDS011;24786;51.984;5.872;2022-12-20T01:37:03;3.05;;;2.75;;
39018;SDS011;24786;51.984;5.872;2022-12-20T01:39:29;3.47;;;2.83;;
39018;SDS011;24786;51.984;5.872;2022-12-20T01:41:54;2.97;;;2.50;;
39018;SDS011;24786;51.984;5.872;2022-12-20T01:46:46;3.40;;;2.83;;
39018;SDS011;24786;51.984;5.872;2022-12-20T01:49:18;3.28;;;2.58;;
39018;SDS011;24786;51.984;5.872;2022-12-20T01:51:48;3.72;;;2.60;;
39018;SDS011;24786;51.984;5.872;2022-12-20T01:54:22;2.88;;;2.60;;
39018;SDS011;24786;51.984;5.872;2022-12-20T01:56:53;2.65;;;2.45;;
39018;SDS011;24786;51.984;5.872;2022-12-20T01:59:25;3.17;;;2.70;;
39018;SDS011;24786;51.984;5.872;2022-12-20T02:01:52;5.38;;;2.80;;
39018;SDS011;24786;51.984;5.872;2022-12-20T02:04:21;5.32;;;3.03;;
39018;SDS011;24786;51.984;5.872;2022-12-20T02:06:47;3.70;;;3.08;;
39018;SDS011;24786;51.984;5.872;2022-12-20T02:09:12;3.70;;;2.92;;
39018;SDS011;24786;51.984;5.872;2022-12-20T02:17:23;5.50;;;3.33;;
39018;SDS011;24786;51.984;5.872;2022-12-20T02:23:09;5.75;;;3.72;;
39018;SDS011;24786;51.984;5.872;2022-12-20T02:29:01;5.95;;;3.95;;
39018;SDS011;24786;51.984;5.872;2022-12-20T02:31:33;6.97;;;3.55;;
39018;SDS011;24786;51.984;5.872;2022-12-20T02:34:06;4.55;;;2.78;;
39018;SDS011;24786;51.984;5.872;2022-12-20T02:36:34;5.85;;;3.30;;
39018;SDS011;24786;51.984;5.872;2022-12-20T02:38:59;7.30;;;3.28;;
39018;SDS011;24786;51.984;5.872;2022-12-20T02:41:26;4.10;;;3.30;;
39018;SDS011;24786;51.984;5.872;2022-12-20T02:44:04;4.47;;;3.30;;
39018;SDS011;24786;51.984;5.872;2022-12-20T02:46:55;4.25;;;3.38;;
39018;SDS011;24786;51.984;5.872;2022-12-20T02:51:54;3.45;;;3.00;;
39018;SDS011;24786;51.984;5.872;2022-12-20T02:54:21;4.75;;;3.60;;
39018;SDS011;24786;51.984;5.872;2022-12-20T02:56:57;5.13;;;2.97;;
39018;SDS011;24786;51.984;5.872;2022-12-20T02:59:29;5.10;;;3.70;;
39018;SDS011;24786;51.984;5.872;2022-12-20T03:02:00;4.32;;;3.40;;
39018;SDS011;24786;51.984;5.872;2022-12-20T03:04:27;4.88;;;3.28;;
39018;SDS011;24786;51.984;5.872;2022-12-20T03:06:59;4.00;;;2.70;;
39018;SDS011;24786;51.984;5.872;2022-12-20T03:09:37;3.35;;;2.90;;
39018;SDS011;24786;51.984;5.872;2022-12-20T03:12:06;4.28;;;3.30;;
39018;SDS011;24786;51.984;5.872;2022-12-20T03:14:33;5.80;;;3.40;;
39018;SDS011;24786;51.984;5.872;2022-12-20T03:16:58;3.53;;;2.90;;
39018;SDS011;24786;51.984;5.872;2022-12-20T03:19:24;4.75;;;3.25;;
39018;SDS011;24786;51.984;5.872;2022-12-20T03:21:50;4.28;;;3.45;;
39018;SDS011;24786;51.984;5.872;2022-12-20T03:24:15;3.97;;;3.17;;
39018;SDS011;24786;51.984;5.872;2022-12-20T03:26:41;4.32;;;3.50;;
39018;SDS011;24786;51.984;5.872;2022-12-20T03:29:07;3.88;;;3.25;;
39018;SDS011;24786;51.984;5.872;2022-12-20T03:31:33;3.67;;;3.30;;
39018;SDS011;24786;51.984;5.872;2022-12-20T03:33:59;4.32;;;3.85;;
39018;SDS011;24786;51.984;5.872;2022-12-20T03:36:25;3.65;;;3.22;;
39018;SDS011;24786;51.984;5.872;2022-12-20T03:38:51;3.30;;;3.00;;
39018;SDS011;24786;51.984;5.872;2022-12-20T03:41:17;6.43;;;3.90;;
39018;SDS011;24786;51.984;5.872;2022-12-20T03:43:44;3.40;;;3.08;;
39018;SDS011;24786;51.984;5.872;2022-12-20T03:46:09;5.18;;;3.42;;
39018;SDS011;24786;51.984;5.872;2022-12-20T03:48:35;3.92;;;3.08;;
39018;SDS011;24786;51.984;5.872;2022-12-20T03:51:01;5.93;;;3.10;;
39018;SDS011;24786;51.984;5.872;2022-12-20T03:53:26;3.78;;;3.38;;
39018;SDS011;24786;51.984;5.872;2022-12-20T03:55:52;4.43;;;3.22;;
39018;SDS011;24786;51.984;5.872;2022-12-20T03:58:17;4.63;;;3.10;;
39018;SDS011;24786;51.984;5.872;2022-12-20T04:00:43;4.07;;;3.08;;
39018;SDS011;24786;51.984;5.872;2022-12-20T04:03:08;5.82;;;3.60;;
39018;SDS011;24786;51.984;5.872;2022-12-20T04:05:35;3.30;;;3.00;;
39018;SDS011;24786;51.984;5.872;2022-12-20T04:08:00;5.88;;;3.40;;
39018;SDS011;24786;51.984;5.872;2022-12-20T04:10:26;4.75;;;3.25;;
39018;SDS011;24786;51.984;5.872;2022-12-20T04:12:51;6.10;;;3.50;;
39018;SDS011;24786;51.984;5.872;2022-12-20T04:15:17;5.20;;;3.20;;
39018;SDS011;24786;51.984;5.872;2022-12-20T04:17:43;4.70;;;3.05;;
39018;SDS011;24786;51.984;5.872;2022-12-20T04:20:09;3.30;;;2.95;;
39018;SDS011;24786;51.984;5.872;2022-12-20T04:22:47;5.32;;;3.08;;
39018;SDS011;24786;51.984;5.872;2022-12-20T04:25:15;8.35;;;3.47;;
39018;SDS011;24786;51.984;5.872;2022-12-20T04:27:42;4.35;;;3.40;;
39018;SDS011;24786;51.984;5.872;2022-12-20T04:30:08;3.78;;;2.95;;
39018;SDS011;24786;51.984;5.872;2022-12-20T04:32:34;4.30;;;3.45;;
39018;SDS011;24786;51.984;5.872;2022-12-20T04:34:59;4.60;;;2.97;;
39018;SDS011;24786;51.984;5.872;2022-12-20T04:37:25;4.45;;;3.30;;
39018;SDS011;24786;51.984;5.872;2022-12-20T04:39:51;3.70;;;3.08;;
39018;SDS011;24786;51.984;5.872;2022-12-20T04:42:16;5.03;;;3.38;;
39018;SDS011;24786;51.984;5.872;2022-12-20T04:44:42;4.20;;;3.05;;
39018;SDS011;24786;51.984;5.872;2022-12-20T04:47:07;4.47;;;3.00;;
39018;SDS011;24786;51.984;5.872;2022-12-20T04:49:34;3.95;;;3.20;;
39018;SDS011;24786;51.984;5.872;2022-12-20T04:52:00;3.85;;;2.80;;
39018;SDS011;24786;51.984;5.872;2022-12-20T04:54:46;3.95;;;3.03;;
39018;SDS011;24786;51.984;5.872;2022-12-20T04:57:12;7.88;;;3.38;;
39018;SDS011;24786;51.984;5.872;2022-12-20T04:59:37;4.45;;;3.17;;
39018;SDS011;24786;51.984;5.872;2022-12-20T05:02:03;3.42;;;2.90;;
39018;SDS011;24786;51.984;5.872;2022-12-20T05:04:29;5.43;;;3.00;;
39018;SDS011;24786;51.984;5.872;2022-12-20T05:06:54;3.65;;;2.88;;
39018;SDS011;24786;51.984;5.872;2022-12-20T05:09:20;6.60;;;3.38;;
39018;SDS011;24786;51.984;5.872;2022-12-20T05:11:45;3.25;;;2.83;;
39018;SDS011;24786;51.984;5.872;2022-12-20T05:14:11;4.05;;;3.05;;
39018;SDS011;24786;51.984;5.872;2022-12-20T05:16:36;4.78;;;3.30;;
39018;SDS011;24786;51.984;5.872;2022-12-20T05:19:02;5.47;;;3.53;;
39018;SDS011;24786;51.984;5.872;2022-12-20T05:21:28;4.68;;;3.10;;
39018;SDS011;24786;51.984;5.872;2022-12-20T05:24:13;4.78;;;2.80;;
39018;SDS011;24786;51.984;5.872;2022-12-20T05:26:58;3.97;;;3.00;;
39018;SDS011;24786;51.984;5.872;2022-12-20T05:29:23;5.15;;;3.38;;
39018;SDS011;24786;51.984;5.872;2022-12-20T05:31:49;3.20;;;2.88;;
39018;SDS011;24786;51.984;5.872;2022-12-20T05:34:14;6.68;;;3.30;;
39018;SDS011;24786;51.984;5.872;2022-12-20T05:36:40;5.22;;;3.55;;
39018;SDS011;24786;51.984;5.872;2022-12-20T05:39:06;5.80;;;3.70;;
39018;SDS011;24786;51.984;5.872;2022-12-20T05:41:32;5.15;;;2.67;;
39018;SDS011;24786;51.984;5.872;2022-12-20T05:43:57;3.50;;;3.17;;
39018;SDS011;24786;51.984;5.872;2022-12-20T05:46:23;11.85;;;3.40;;
39018;SDS011;24786;51.984;5.872;2022-12-20T05:48:49;4.10;;;3.20;;
39018;SDS011;24786;51.984;5.872;2022-12-20T05:51:14;5.93;;;3.67;;
39018;SDS011;24786;51.984;5.872;2022-12-20T05:53:40;5.25;;;3.25;;
39018;SDS011;24786;51.984;5.872;2022-12-20T05:56:05;7.32;;;3.38;;
39018;SDS011;24786;51.984;5.872;2022-12-20T05:58:31;5.05;;;3.30;;
39018;SDS011;24786;51.984;5.872;2022-12-20T06:01:01;4.00;;;3.20;;
39018;SDS011;24786;51.984;5.872;2022-12-20T06:03:28;4.93;;;3.10;;
39018;SDS011;24786;51.984;5.872;2022-12-20T06:05:53;4.95;;;2.90;;
39018;SDS011;24786;51.984;5.872;2022-12-20T06:08:19;4.40;;;2.97;;
39018;SDS011;24786;51.984;5.872;2022-12-20T06:10:46;4.70;;;3.10;;
39018;SDS011;24786;51.984;5.872;2022-12-20T06:13:12;6.03;;;3.65;;
39018;SDS011;24786;51.984;5.872;2022-12-20T06:15:38;4.93;;;3.75;;
39018;SDS011;24786;51.984;5.872;2022-12-20T06:18:04;5.82;;;3.70;;
39018;SDS011;24786;51.984;5.872;2022-12-20T06:20:30;5.65;;;3.28;;
39018;SDS011;24786;51.984;5.872;2022-12-20T06:22:56;4.68;;;3.70;;
39018;SDS011;24786;51.984;5.872;2022-12-20T06:25:22;4.55;;;3.05;;
39018;SDS011;24786;51.984;5.872;2022-12-20T06:27:48;4.88;;;3.28;;
39018;SDS011;24786;51.984;5.872;2022-12-20T06:30:13;7.75;;;3.20;;
39018;SDS011;24786;51.984;5.872;2022-12-20T06:32:39;5.60;;;3.60;;
39018;SDS011;24786;51.984;5.872;2022-12-20T06:35:05;5.68;;;3.33;;
39018;SDS011;24786;51.984;5.872;2022-12-20T06:37:34;4.00;;;2.95;;
39018;SDS011;24786;51.984;5.872;2022-12-20T06:40:00;5.13;;;3.35;;
39018;SDS011;24786;51.984;5.872;2022-12-20T06:42:26;6.07;;;3.30;;
39018;SDS011;24786;51.984;5.872;2022-12-20T06:44:52;4.63;;;2.92;;
39018;SDS011;24786;51.984;5.872;2022-12-20T06:47:17;5.32;;;3.50;;
39018;SDS011;24786;51.984;5.872;2022-12-20T06:49:43;6.28;;;2.88;;
39018;SDS011;24786;51.984;5.872;2022-12-20T06:52:09;4.10;;;2.75;;
39018;SDS011;24786;51.984;5.872;2022-12-20T06:54:34;3.47;;;3.03;;
39018;SDS011;24786;51.984;5.872;2022-12-20T06:57:00;3.20;;;2.88;;
39018;SDS011;24786;51.984;5.872;2022-12-20T06:59:26;4.53;;;2.97;;
39018;SDS011;24786;51.984;5.872;2022-12-20T07:01:51;3.45;;;2.90;;
39018;SDS011;24786;51.984;5.872;2022-12-20T07:04:17;4.13;;;2.90;;
39018;SDS011;24786;51.984;5.872;2022-12-20T07:06:43;3.13;;;2.50;;
39018;SDS011;24786;51.984;5.872;2022-12-20T07:09:09;4.20;;;2.72;;
39018;SDS011;24786;51.984;5.872;2022-12-20T07:11:36;3.42;;;2.80;;
39018;SDS011;24786;51.984;5.872;2022-12-20T07:14:02;3.47;;;2.78;;
39018;SDS011;24786;51.984;5.872;2022-12-20T07:16:28;4.00;;;3.40;;
39018;SDS011;24786;51.984;5.872;2022-12-20T07:18:53;3.72;;;2.75;;
39018;SDS011;24786;51.984;5.872;2022-12-20T07:21:19;6.05;;;3.30;;
39018;SDS011;24786;51.984;5.872;2022-12-20T07:23:45;3.83;;;3.17;;
39018;SDS011;24786;51.984;5.872;2022-12-20T07:26:12;3.00;;;2.67;;
39018;SDS011;24786;51.984;5.872;2022-12-20T07:28:38;4.07;;;3.08;;
39018;SDS011;24786;51.984;5.872;2022-12-20T07:31:04;6.93;;;3.40;;
39018;SDS011;24786;51.984;5.872;2022-12-20T07:33:30;5.22;;;3.10;;
39018;SDS011;24786;51.984;5.872;2022-12-20T07:36:15;5.75;;;2.88;;
39018;SDS011;24786;51.984;5.872;2022-12-20T07:38:40;5.35;;;3.17;;
39018;SDS011;24786;51.984;5.872;2022-12-20T07:41:07;6.72;;;2.92;;
39018;SDS011;24786;51.984;5.872;2022-12-20T07:43:34;4.82;;;3.17;;
39018;SDS011;24786;51.984;5.872;2022-12-20T07:45:59;5.35;;;2.92;;
39018;SDS011;24786;51.984;5.872;2022-12-20T07:48:26;3.97;;;3.10;;
39018;SDS011;24786;51.984;5.872;2022-12-20T07:50:52;9.45;;;4.25;;
39018;SDS011;24786;51.984;5.872;2022-12-20T07:53:22;5.18;;;2.88;;
39018;SDS011;24786;51.984;5.872;2022-12-20T07:55:48;4.88;;;3.25;;
39018;SDS011;24786;51.984;5.872;2022-12-20T07:58:14;4.45;;;3.28;;
39018;SDS011;24786;51.984;5.872;2022-12-20T08:00:42;3.60;;;2.85;;
39018;SDS011;24786;51.984;5.872;2022-12-20T08:03:12;3.03;;;2.50;;
39018;SDS011;24786;51.984;5.872;2022-12-20T08:05:44;3.13;;;2.67;;
39018;SDS011;24786;51.984;5.872;2022-12-20T08:08:15;2.92;;;2.50;;
39018;SDS011;24786;51.984;5.872;2022-12-20T08:10:41;3.78;;;2.70;;
39018;SDS011;24786;51.984;5.872;2022-12-20T08:13:07;3.10;;;2.72;;
39018;SDS011;24786;51.984;5.872;2022-12-20T08:15:33;3.50;;;2.83;;
39018;SDS011;24786;51.984;5.872;2022-12-20T08:18:00;4.90;;;3.25;;
39018;SDS011;24786;51.984;5.872;2022-12-20T08:20:26;3.65;;;2.92;;
39018;SDS011;24786;51.984;5.872;2022-12-20T08:22:51;4.43;;;2.88;;
39018;SDS011;24786;51.984;5.872;2022-12-20T08:25:17;4.00;;;2.80;;
39018;SDS011;24786;51.984;5.872;2022-12-20T08:27:43;3.70;;;2.80;;
39018;SDS011;24786;51.984;5.872;2022-12-20T08:30:08;3.65;;;2.88;;
39018;SDS011;24786;51.984;5.872;2022-12-20T08:32:35;3.55;;;3.10;;
39018;SDS011;24786;51.984;5.872;2022-12-20T08:35:01;3.58;;;3.03;;
39018;SDS011;24786;51.984;5.872;2022-12-20T08:37:28;2.83;;;2.60;;
39018;SDS011;24786;51.984;5.872;2022-12-20T08:39:53;3.10;;;2.47;;
39018;SDS011;24786;51.984;5.872;2022-12-20T08:42:19;3.25;;;2.95;;
39018;SDS011;24786;51.984;5.872;2022-12-20T08:44:44;4.93;;;3.10;;
39018;SDS011;24786;51.984;5.872;2022-12-20T08:47:10;4.85;;;2.88;;
39018;SDS011;24786;51.984;5.872;2022-12-20T08:49:36;3.95;;;3.05;;
39018;SDS011;24786;51.984;5.872;2022-12-20T08:52:01;5.90;;;2.55;;
39018;SDS011;24786;51.984;5.872;2022-12-20T08:54:27;3.80;;;2.47;;
39018;SDS011;24786;51.984;5.872;2022-12-20T08:56:53;3.67;;;2.88;;
39018;SDS011;24786;51.984;5.872;2022-12-20T08:59:18;3.38;;;2.55;;
39018;SDS011;24786;51.984;5.872;2022-12-20T09:01:44;4.65;;;2.80;;
39018;SDS011;24786;51.984;5.872;2022-12-20T09:04:10;2.83;;;2.60;;
39018;SDS011;24786;51.984;5.872;2022-12-20T09:06:36;7.53;;;3.00;;
39018;SDS011;24786;51.984;5.872;2022-12-20T09:09:05;4.05;;;2.90;;
39018;SDS011;24786;51.984;5.872;2022-12-20T09:11:31;2.33;;;2.10;;
39018;SDS011;24786;51.984;5.872;2022-12-20T09:13:58;2.53;;;2.33;;
39018;SDS011;24786;51.984;5.872;2022-12-20T09:16:25;2.92;;;2.33;;
39018;SDS011;24786;51.984;5.872;2022-12-20T09:18:56;3.83;;;2.42;;
39018;SDS011;24786;51.984;5.872;2022-12-20T09:21:22;2.95;;;2.33;;
39018;SDS011;24786;51.984;5.872;2022-12-20T09:23:51;4.40;;;3.10;;
39018;SDS011;24786;51.984;5.872;2022-12-20T09:26:19;3.10;;;2.80;;
39018;SDS011;24786;51.984;5.872;2022-12-20T09:28:46;6.75;;;2.50;;
39018;SDS011;24786;51.984;5.872;2022-12-20T09:31:13;6.97;;;2.70;;
39018;SDS011;24786;51.984;5.872;2022-12-20T09:33:40;4.03;;;2.80;;
39018;SDS011;24786;51.984;5.872;2022-12-20T09:36:14;2.30;;;2.10;;
39018;SDS011;24786;51.984;5.872;2022-12-20T09:38:42;3.03;;;2.70;;
39018;SDS011;24786;51.984;5.872;2022-12-20T09:41:14;5.82;;;2.28;;
39018;SDS011;24786;51.984;5.872;2022-12-20T09:43:56;4.53;;;2.60;;
39018;SDS011;24786;51.984;5.872;2022-12-20T09:46:23;5.60;;;2.70;;
39018;SDS011;24786;51.984;5.872;2022-12-20T09:48:49;6.38;;;2.70;;
39018;SDS011;24786;51.984;5.872;2022-12-20T09:56:31;5.90;;;2.90;;
39018;SDS011;24786;51.984;5.872;2022-12-20T09:59:16;2.83;;;2.38;;
39018;SDS011;24786;51.984;5.872;2022-12-20T10:01:47;4.18;;;2.70;;
39018;SDS011;24786;51.984;5.872;2022-12-20T10:04:21;3.25;;;2.50;;
39018;SDS011;24786;51.984;5.872;2022-12-20T10:22:28;4.13;;;2.67;;
39018;SDS011;24786;51.984;5.872;2022-12-20T10:25:16;3.63;;;2.50;;
39018;SDS011;24786;51.984;5.872;2022-12-20T10:27:44;5.18;;;2.95;;
39018;SDS011;24786;51.984;5.872;2022-12-20T10:30:19;5.43;;;2.75;;
39018;SDS011;24786;51.984;5.872;2022-12-20T10:32:47;4.30;;;2.45;;
39018;SDS011;24786;51.984;5.872;2022-12-20T10:35:25;3.13;;;2.42;;
39018;SDS011;24786;51.984;5.872;2022-12-20T10:38:02;3.45;;;3.05;;
39018;SDS011;24786;51.984;5.872;2022-12-20T10:40:37;3.55;;;2.45;;
39018;SDS011;24786;51.984;5.872;2022-12-20T10:43:13;3.42;;;2.67;;
39018;SDS011;24786;51.984;5.872;2022-12-20T10:45:42;3.30;;;2.80;;
39018;SDS011;24786;51.984;5.872;2022-12-20T10:53:35;5.88;;;3.08;;
39018;SDS011;24786;51.984;5.872;2022-12-20T10:58:51;3.38;;;2.63;;
39018;SDS011;24786;51.984;5.872;2022-12-20T11:01:18;6.78;;;3.00;;
39018;SDS011;24786;51.984;5.872;2022-12-20T11:04:06;4.40;;;3.30;;
39018;SDS011;24786;51.984;5.872;2022-12-20T11:06:44;4.07;;;2.97;;
39018;SDS011;24786;51.984;5.872;2022-12-20T11:09:26;4.93;;;2.80;;
39018;SDS011;24786;51.984;5.872;2022-12-20T11:12:04;3.75;;;3.30;;
39018;SDS011;24786;51.984;5.872;2022-12-20T11:14:33;5.07;;;3.13;;
39018;SDS011;24786;51.984;5.872;2022-12-20T11:17:03;3.85;;;2.92;;
39018;SDS011;24786;51.984;5.872;2022-12-20T11:25:14;9.18;;;3.15;;
39018;SDS011;24786;51.984;5.872;2022-12-20T11:27:56;3.72;;;3.38;;
39018;SDS011;24786;51.984;5.872;2022-12-20T11:39:31;6.18;;;3.33;;
39018;SDS011;24786;51.984;5.872;2022-12-20T11:52:34;5.72;;;3.30;;
39018;SDS011;24786;51.984;5.872;2022-12-20T11:58:03;5.13;;;3.70;;
39018;SDS011;24786;51.984;5.872;2022-12-20T12:00:34;4.70;;;3.15;;
39018;SDS011;24786;51.984;5.872;2022-12-20T12:05:43;4.30;;;3.38;;
39018;SDS011;24786;51.984;5.872;2022-12-20T12:08:21;6.57;;;3.90;;
39018;SDS011;24786;51.984;5.872;2022-12-20T12:10:55;5.50;;;3.65;;
39018;SDS011;24786;51.984;5.872;2022-12-20T12:13:35;6.25;;;3.72;;
39018;SDS011;24786;51.984;5.872;2022-12-20T12:16:38;5.88;;;3.30;;
39018;SDS011;24786;51.984;5.872;2022-12-20T12:18:58;3.92;;;3.33;;
39018;SDS011;24786;51.984;5.872;2022-12-20T12:21:25;6.75;;;3.67;;
39018;SDS011;24786;51.984;5.872;2022-12-20T12:26:58;6.10;;;3.33;;
39018;SDS011;24786;51.984;5.872;2022-12-20T12:29:24;4.55;;;3.45;;
39018;SDS011;24786;51.984;5.872;2022-12-20T12:43:40;5.15;;;3.70;;
39018;SDS011;24786;51.984;5.872;2022-12-20T12:49:03;5.47;;;4.05;;
39018;SDS011;24786;51.984;5.872;2022-12-20T12:51:52;4.78;;;3.80;;
39018;SDS011;24786;51.984;5.872;2022-12-20T12:54:22;4.50;;;4.10;;
39018;SDS011;24786;51.984;5.872;2022-12-20T12:56:49;5.50;;;4.28;;
39018;SDS011;24786;51.984;5.872;2022-12-20T13:04:51;5.50;;;3.78;;
39018;SDS011;24786;51.984;5.872;2022-12-20T13:07:25;6.75;;;4.10;;
39018;SDS011;24786;51.984;5.872;2022-12-20T13:09:57;6.40;;;4.38;;
39018;SDS011;24786;51.984;5.872;2022-12-20T13:12:45;6.15;;;4.15;;
39018;SDS011;24786;51.984;5.872;2022-12-20T13:23:04;4.55;;;4.10;;
39018;SDS011;24786;51.984;5.872;2022-12-20T13:25:53;6.20;;;4.53;;
39018;SDS011;24786;51.984;5.872;2022-12-20T13:43:47;6.78;;;4.32;;
39018;SDS011;24786;51.984;5.872;2022-12-20T13:46:26;5.90;;;4.50;;
39018;SDS011;24786;51.984;5.872;2022-12-20T13:49:04;5.32;;;4.25;;
39018;SDS011;24786;51.984;5.872;2022-12-20T13:51:36;5.82;;;4.68;;
39018;SDS011;24786;51.984;5.872;2022-12-20T13:54:03;5.15;;;4.22;;
39018;SDS011;24786;51.984;5.872;2022-12-20T13:56:42;7.22;;;4.50;;
39018;SDS011;24786;51.984;5.872;2022-12-20T13:59:13;6.38;;;4.53;;
39018;SDS011;24786;51.984;5.872;2022-12-20T14:01:50;7.28;;;5.55;;
39018;SDS011;24786;51.984;5.872;2022-12-20T14:04:18;5.60;;;4.57;;
39018;SDS011;24786;51.984;5.872;2022-12-20T14:06:49;5.53;;;4.85;;
39018;SDS011;24786;51.984;5.872;2022-12-20T14:12:04;7.88;;;5.32;;
39018;SDS011;24786;51.984;5.872;2022-12-20T14:14:44;10.48;;;5.60;;
39018;SDS011;24786;51.984;5.872;2022-12-20T14:17:16;8.20;;;5.07;;
39018;SDS011;24786;51.984;5.872;2022-12-20T14:19:52;5.50;;;4.25;;
39018;SDS011;24786;51.984;5.872;2022-12-20T14:22:28;6.35;;;4.95;;
39018;SDS011;24786;51.984;5.872;2022-12-20T14:24:54;7.90;;;4.28;;
39018;SDS011;24786;51.984;5.872;2022-12-20T14:27:20;6.20;;;4.78;;
39018;SDS011;24786;51.984;5.872;2022-12-20T14:29:46;6.63;;;4.43;;
39018;SDS011;24786;51.984;5.872;2022-12-20T14:32:18;7.30;;;4.75;;
39018;SDS011;24786;51.984;5.872;2022-12-20T14:34:44;6.05;;;4.82;;
39018;SDS011;24786;51.984;5.872;2022-12-20T14:39:58;5.65;;;4.97;;
39018;SDS011;24786;51.984;5.872;2022-12-20T14:42:34;7.07;;;5.10;;
39018;SDS011;24786;51.984;5.872;2022-12-20T14:47:33;6.43;;;5.03;;
39018;SDS011;24786;51.984;5.872;2022-12-20T14:50:04;6.10;;;4.85;;
39018;SDS011;24786;51.984;5.872;2022-12-20T14:52:41;7.03;;;5.18;;
39018;SDS011;24786;51.984;5.872;2022-12-20T14:55:12;5.93;;;5.35;;
39018;SDS011;24786;51.984;5.872;2022-12-20T15:00:15;5.70;;;4.47;;
39018;SDS011;24786;51.984;5.872;2022-12-20T15:13:21;5.85;;;4.88;;
39018;SDS011;24786;51.984;5.872;2022-12-20T15:15:50;5.45;;;4.55;;
39018;SDS011;24786;51.984;5.872;2022-12-20T15:18:18;5.78;;;4.30;;
39018;SDS011;24786;51.984;5.872;2022-12-20T15:20:47;5.15;;;4.47;;
39018;SDS011;24786;51.984;5.872;2022-12-20T15:23:21;6.45;;;4.72;;
39018;SDS011;24786;51.984;5.872;2022-12-20T15:25:47;5.70;;;4.80;;
39018;SDS011;24786;51.984;5.872;2022-12-20T15:28:23;6.85;;;4.72;;
39018;SDS011;24786;51.984;5.872;2022-12-20T15:30:50;6.38;;;4.80;;
39018;SDS011;24786;51.984;5.872;2022-12-20T15:33:20;5.93;;;4.45;;
39018;SDS011;24786;51.984;5.872;2022-12-20T15:35:47;8.52;;;4.90;;
39018;SDS011;24786;51.984;5.872;2022-12-20T15:38:23;5.32;;;4.75;;
39018;SDS011;24786;51.984;5.872;2022-12-20T15:40:51;4.93;;;4.43;;
39018;SDS011;24786;51.984;5.872;2022-12-20T15:43:19;7.18;;;5.25;;
39018;SDS011;24786;51.984;5.872;2022-12-20T15:45:47;6.05;;;4.72;;
39018;SDS011;24786;51.984;5.872;2022-12-20T15:48:16;7.10;;;4.88;;
39018;SDS011;24786;51.984;5.872;2022-12-20T15:50:48;7.63;;;5.90;;
39018;SDS011;24786;51.984;5.872;2022-12-20T15:53:23;6.57;;;5.65;;
39018;SDS011;24786;51.984;5.872;2022-12-20T15:55:52;7.15;;;5.47;;
39018;SDS011;24786;51.984;5.872;2022-12-20T15:58:20;6.57;;;5.63;;
39018;SDS011;24786;51.984;5.872;2022-12-20T16:00:47;9.07;;;6.20;;
39018;SDS011;24786;51.984;5.872;2022-12-20T16:03:13;6.22;;;5.57;;
39018;SDS011;24786;51.984;5.872;2022-12-20T16:05:45;6.25;;;5.40;;
39018;SDS011;24786;51.984;5.872;2022-12-20T16:08:12;6.03;;;5.30;;
39018;SDS011;24786;51.984;5.872;2022-12-20T16:10:38;5.53;;;4.95;;
39018;SDS011;24786;51.984;5.872;2022-12-20T16:13:04;8.23;;;5.90;;
39018;SDS011;24786;51.984;5.872;2022-12-20T16:15:32;6.93;;;6.05;;
39018;SDS011;24786;51.984;5.872;2022-12-20T16:17:58;7.72;;;6.43;;
39018;SDS011;24786;51.984;5.872;2022-12-20T16:20:24;7.50;;;5.82;;
39018;SDS011;24786;51.984;5.872;2022-12-20T16:22:51;8.25;;;7.18;;
39018;SDS011;24786;51.984;5.872;2022-12-20T16:25:22;7.40;;;6.55;;
39018;SDS011;24786;51.984;5.872;2022-12-20T16:27:55;7.40;;;6.30;;
39018;SDS011;24786;51.984;5.872;2022-12-20T16:30:22;9.68;;;6.88;;
39018;SDS011;24786;51.984;5.872;2022-12-20T16:32:48;9.68;;;6.72;;
39018;SDS011;24786;51.984;5.872;2022-12-20T16:35:28;9.15;;;6.40;;
39018;SDS011;24786;51.984;5.872;2022-12-20T16:37:56;10.63;;;6.85;;
39018;SDS011;24786;51.984;5.872;2022-12-20T16:40:26;8.50;;;6.68;;
39018;SDS011;24786;51.984;5.872;2022-12-20T16:42:53;8.93;;;6.78;;
39018;SDS011;24786;51.984;5.872;2022-12-20T16:45:22;8.10;;;6.25;;
39018;SDS011;24786;51.984;5.872;2022-12-20T16:47:50;7.55;;;6.57;;
39018;SDS011;24786;51.984;5.872;2022-12-20T16:50:17;14.38;;;8.20;;
39018;SDS011;24786;51.984;5.872;2022-12-20T16:52:44;9.57;;;7.15;;
39018;SDS011;24786;51.984;5.872;2022-12-20T16:55:12;9.85;;;7.75;;
39018;SDS011;24786;51.984;5.872;2022-12-20T16:57:40;8.07;;;7.07;;
39018;SDS011;24786;51.984;5.872;2022-12-20T17:00:06;8.50;;;6.53;;
39018;SDS011;24786;51.984;5.872;2022-12-20T17:02:34;9.07;;;6.63;;
39018;SDS011;24786;51.984;5.872;2022-12-20T17:04:59;8.52;;;7.55;;
39018;SDS011;24786;51.984;5.872;2022-12-20T17:07:26;8.18;;;7.28;;
39018;SDS011;24786;51.984;5.872;2022-12-20T17:09:51;8.43;;;6.93;;
39018;SDS011;24786;51.984;5.872;2022-12-20T17:12:18;8.80;;;7.60;;
39018;SDS011;24786;51.984;5.872;2022-12-20T17:14:46;11.10;;;7.70;;
39018;SDS011;24786;51.984;5.872;2022-12-20T17:17:12;9.07;;;7.40;;
39018;SDS011;24786;51.984;5.872;2022-12-20T17:19:38;10.43;;;8.32;;
39018;SDS011;24786;51.984;5.872;2022-12-20T17:22:04;7.82;;;6.82;;
39018;SDS011;24786;51.984;5.872;2022-12-20T17:24:30;7.80;;;6.88;;
39018;SDS011;24786;51.984;5.872;2022-12-20T17:26:56;9.85;;;7.55;;